createdAt,value
2022-11-07T00:01:00.669Z,3.27
2022-11-07T00:16:00.561Z,3.62
2022-11-07T00:31:00.482Z,2.95
2022-11-07T00:46:00.616Z,2.63
2022-11-07T01:01:00.500Z,3.20
2022-11-07T01:16:00.507Z,2.95
2022-11-07T01:31:00.790Z,3.01
2022-11-07T01:46:00.838Z,2.77
2022-11-07T02:01:00.622Z,2.33
2022-11-07T02:16:00.683Z,2.70
2022-11-07T02:31:00.701Z,2.42
2022-11-07T02:46:00.913Z,1.93
2022-11-07T03:01:00.512Z,2.29
2022-11-07T03:16:00.677Z,2.12
2022-11-07T03:31:00.716Z,2.15
2022-11-07T03:46:00.581Z,2.24
2022-11-07T04:01:00.643Z,2.03
2022-11-07T04:16:00.545Z,1.98
2022-11-07T04:31:00.644Z,2.15
2022-11-07T04:46:00.714Z,2.37
2022-11-07T05:01:00.676Z,2.52
2022-11-07T05:16:00.573Z,1.92
2022-11-07T05:31:00.734Z,2.54
2022-11-07T05:46:00.679Z,2.09
2022-11-07T06:01:00.987Z,2.18
2022-11-07T06:16:00.811Z,2.44
2022-11-07T06:31:00.615Z,2.11
2022-11-07T06:46:00.797Z,2.40
2022-11-07T07:01:00.658Z,2.26
2022-11-07T07:16:00.622Z,2.35
2022-11-07T07:31:00.599Z,2.59
2022-11-07T07:46:00.827Z,2.28
2022-11-07T08:01:00.740Z,2.23
2022-11-07T08:16:00.847Z,2.81
2022-11-07T08:31:00.786Z,3.07
2022-11-07T08:46:01.154Z,2.67
2022-11-07T09:01:01.014Z,2.70
2022-11-07T09:16:01.156Z,2.41
2022-11-07T09:31:01.197Z,3.28
2022-11-07T09:46:00.803Z,3.41
2022-11-07T10:01:01.408Z,4.24
2022-11-07T10:16:01.114Z,3.66
2022-11-07T10:31:00.916Z,3.60
2022-11-07T10:46:01.191Z,3.39
2022-11-07T11:01:00.814Z,3.28
2022-11-07T11:16:05.542Z,3.14
2022-11-07T11:31:01.036Z,2.67
2022-11-07T11:46:01.153Z,3.42
2022-11-07T12:01:01.032Z,3.24
2022-11-07T12:16:00.994Z,2.99
2022-11-07T12:31:00.770Z,3.50
2022-11-07T12:46:01.025Z,3.53
2022-11-07T13:01:00.900Z,3.94
2022-11-07T13:16:14.973Z,3.06
2022-11-07T13:31:06.677Z,2.56
2022-11-07T13:46:00.873Z,2.49
2022-11-07T14:01:01.201Z,2.34
2022-11-07T14:16:00.912Z,2.59
2022-11-07T14:31:01.104Z,2.18
2022-11-07T14:46:12.360Z,2.66
2022-11-07T15:01:01.146Z,2.76
2022-11-07T15:16:01.060Z,2.79
2022-11-07T15:31:01.043Z,2.53
2022-11-07T15:46:00.847Z,2.35
2022-11-07T16:01:01.295Z,2.81
2022-11-07T16:16:00.947Z,2.48
2022-11-07T16:31:00.864Z,1.93
2022-11-07T16:46:00.958Z,2.09
2022-11-07T17:01:01.063Z,2.14
2022-11-07T17:16:01.027Z,2.76
2022-11-07T17:31:01.313Z,2.26
2022-11-07T17:46:01.106Z,2.47
2022-11-07T18:01:01.199Z,2.44
2022-11-07T18:16:01.228Z,2.15
2022-11-07T18:31:00.926Z,2.52
2022-11-07T18:46:01.116Z,2.22
2022-11-07T19:01:01.069Z,2.17
2022-11-07T19:16:00.943Z,2.14
2022-11-07T19:31:00.945Z,2.43
2022-11-07T19:46:01.434Z,2.56
2022-11-07T20:01:01.260Z,2.63
2022-11-07T20:16:01.360Z,2.67
2022-11-07T20:31:01.127Z,2.54
2022-11-07T20:46:01.015Z,2.06
2022-11-07T21:01:01.188Z,2.23
2022-11-07T21:16:01.127Z,2.29
2022-11-07T21:31:01.056Z,1.90
2022-11-07T21:46:01.001Z,1.95
2022-11-07T22:01:01.494Z,1.81
2022-11-07T22:16:01.272Z,1.82
2022-11-07T22:31:01.215Z,2.27
2022-11-07T22:46:01.094Z,1.83
2022-11-07T23:01:01.544Z,1.65
2022-11-07T23:16:01.227Z,2.21
2022-11-07T23:31:01.127Z,2.18
2022-11-07T23:46:01.416Z,2.17
